createdAt,value
2022-07-28T00:00:29.468Z,8.52
2022-07-28T00:03:31.916Z,9.20
2022-07-28T00:06:34.329Z,9.43
2022-07-28T00:09:36.696Z,11.43
2022-07-28T00:12:39.484Z,8.88
2022-07-28T00:15:41.906Z,9.32
2022-07-28T00:18:44.385Z,10.38
2022-07-28T00:21:47.326Z,11.57
2022-07-28T00:24:49.837Z,8.50
2022-07-28T00:27:53.419Z,8.80
2022-07-28T00:30:55.856Z,8.63
2022-07-28T00:33:58.466Z,8.30
2022-07-28T00:37:00.843Z,18.75
2022-07-28T00:40:10.010Z,10.07
2022-07-28T00:43:12.431Z,11.93
2022-07-28T00:46:17.387Z,8.25
2022-07-28T00:49:20.073Z,11.70
2022-07-28T00:52:22.831Z,8.65
2022-07-28T00:55:25.311Z,9.37
2022-07-28T00:58:28.434Z,8.50
2022-07-28T01:01:31.036Z,7.50
2022-07-28T01:04:33.661Z,9.23
2022-07-28T01:07:52.421Z,6.93
2022-07-28T01:11:07.092Z,7.43
2022-07-28T01:14:34.700Z,8.52
2022-07-28T01:17:48.329Z,6.82
2022-07-28T01:20:55.243Z,7.45
2022-07-28T01:24:03.499Z,9.38
2022-07-28T01:27:26.748Z,9.87
2022-07-28T01:30:47.909Z,10.10
2022-07-28T01:33:56.756Z,9.88
2022-07-28T01:37:06.307Z,6.38
2022-07-28T01:40:10.470Z,9.48
2022-07-28T01:43:20.472Z,6.90
2022-07-28T01:46:24.439Z,8.65
2022-07-28T01:49:29.629Z,8.70
2022-07-28T01:52:33.014Z,7.53
2022-07-28T01:55:36.255Z,7.93
2022-07-28T01:58:39.806Z,7.70
2022-07-28T02:01:44.629Z,9.10
2022-07-28T02:04:49.082Z,8.68
2022-07-28T02:07:55.273Z,6.78
2022-07-28T02:11:18.601Z,9.60
2022-07-28T02:14:25.690Z,7.03
2022-07-28T02:17:31.734Z,10.50
2022-07-28T02:20:34.793Z,8.50
2022-07-28T02:23:38.675Z,6.10
2022-07-28T02:26:48.804Z,9.13
2022-07-28T02:29:59.997Z,9.50
2022-07-28T02:33:11.347Z,7.57
2022-07-28T02:36:20.512Z,10.32
2022-07-28T02:39:26.607Z,9.07
2022-07-28T02:42:32.857Z,9.38
2022-07-28T02:45:37.393Z,11.93
2022-07-28T02:48:41.589Z,8.43
2022-07-28T02:51:45.771Z,10.48
2022-07-28T02:54:49.672Z,9.20
2022-07-28T02:57:56.688Z,9.00
2022-07-28T03:01:00.551Z,9.30
2022-07-28T03:04:03.448Z,7.30
2022-07-28T03:07:06.747Z,7.38
2022-07-28T03:10:18.170Z,8.27
2022-07-28T03:13:37.978Z,9.10
2022-07-28T03:16:40.367Z,8.57
2022-07-28T03:19:42.993Z,9.35
2022-07-28T03:22:45.419Z,7.25
2022-07-28T03:25:50.431Z,10.60
2022-07-28T03:28:54.623Z,8.93
2022-07-28T03:31:59.230Z,7.77
2022-07-28T03:35:01.799Z,6.55
2022-07-28T03:38:22.756Z,9.27
2022-07-28T03:41:26.602Z,8.30
2022-07-28T03:44:29.710Z,8.40
2022-07-28T03:47:32.123Z,9.17
2022-07-28T03:50:34.707Z,11.85
2022-07-28T03:53:37.405Z,6.70
2022-07-28T03:56:39.831Z,8.02
2022-07-28T03:59:42.400Z,13.15
2022-07-28T04:02:45.663Z,7.77
2022-07-28T04:05:48.390Z,10.18
2022-07-28T04:08:50.904Z,8.93
2022-07-28T04:11:53.305Z,9.75
2022-07-28T04:14:55.742Z,10.95
2022-07-28T04:17:59.283Z,7.57
2022-07-28T04:21:01.733Z,7.78
2022-07-28T04:24:04.501Z,12.43
2022-07-28T04:27:07.934Z,11.60
2022-07-28T04:30:13.327Z,9.85
2022-07-28T04:33:15.728Z,8.93
2022-07-28T04:36:18.165Z,9.63
2022-07-28T04:39:20.590Z,12.45
2022-07-28T04:42:23.032Z,9.27
2022-07-28T04:45:25.830Z,9.52
2022-07-28T04:48:28.498Z,8.20
2022-07-28T04:51:30.942Z,10.57
2022-07-28T04:54:33.550Z,15.05
2022-07-28T04:57:36.473Z,13.32
2022-07-28T05:00:39.497Z,7.38
2022-07-28T05:03:41.879Z,10.70
2022-07-28T05:06:44.368Z,8.77
2022-07-28T05:09:46.769Z,10.27
2022-07-28T05:12:49.358Z,11.30
2022-07-28T05:15:51.792Z,10.13
2022-07-28T05:18:54.252Z,9.20
2022-07-28T05:21:56.756Z,11.48
2022-07-28T05:24:59.107Z,8.00
2022-07-28T05:28:01.475Z,9.90
2022-07-28T05:31:03.939Z,13.02
2022-07-28T05:34:06.332Z,13.57
2022-07-28T05:37:08.884Z,11.35
2022-07-28T05:40:14.120Z,8.35
2022-07-28T05:43:16.863Z,8.90
2022-07-28T05:46:19.293Z,11.00
2022-07-28T05:49:23.812Z,11.43
2022-07-28T05:52:27.560Z,11.63
2022-07-28T05:55:30.008Z,11.57
2022-07-28T05:58:32.602Z,9.85
2022-07-28T06:01:38.555Z,8.52
2022-07-28T06:04:40.993Z,8.03
2022-07-28T06:07:44.520Z,11.45
2022-07-28T06:10:59.168Z,8.57
2022-07-28T06:14:01.649Z,9.23
2022-07-28T06:17:04.157Z,8.73
2022-07-28T06:20:07.802Z,8.97
2022-07-28T06:23:11.267Z,10.70
2022-07-28T06:26:13.677Z,12.90
2022-07-28T06:29:16.122Z,7.43
2022-07-28T06:32:18.589Z,11.57
2022-07-28T06:35:21.888Z,10.07
2022-07-28T06:38:25.468Z,11.23
2022-07-28T06:41:28.665Z,12.43
2022-07-28T06:44:54.851Z,13.93
2022-07-28T06:47:53.930Z,13.70
2022-07-28T06:50:59.550Z,9.80
2022-07-28T06:54:02.063Z,8.93
2022-07-28T06:57:05.173Z,11.70
2022-07-28T07:00:08.830Z,10.00
2022-07-28T07:03:11.413Z,11.60
2022-07-28T07:06:13.830Z,12.60
2022-07-28T07:09:16.248Z,10.77
2022-07-28T07:12:18.753Z,13.48
2022-07-28T07:15:21.193Z,10.13
2022-07-28T07:18:23.603Z,13.10
2022-07-28T07:21:26.044Z,11.83
2022-07-28T07:24:28.764Z,8.82
2022-07-28T07:27:31.144Z,13.50
2022-07-28T07:30:33.709Z,16.67
2022-07-28T07:33:36.162Z,10.75
2022-07-28T07:36:38.663Z,10.40
2022-07-28T07:39:42.012Z,12.82
2022-07-28T07:42:44.465Z,14.63
2022-07-28T07:45:46.904Z,14.18
2022-07-28T07:48:49.395Z,12.85
2022-07-28T07:51:51.807Z,10.03
2022-07-28T07:54:54.854Z,11.07
2022-07-28T07:57:57.633Z,10.77
2022-07-28T08:01:00.131Z,11.02
2022-07-28T08:04:03.133Z,9.30
2022-07-28T08:07:06.288Z,11.57
2022-07-28T08:10:09.636Z,11.65
2022-07-28T08:13:12.572Z,12.77
2022-07-28T08:16:15.180Z,13.82
2022-07-28T08:19:17.674Z,9.65
2022-07-28T08:22:24.849Z,11.47
2022-07-28T08:25:27.419Z,9.23
2022-07-28T08:28:29.969Z,9.75
2022-07-28T08:31:32.462Z,9.85
2022-07-28T08:34:38.129Z,14.23
2022-07-28T08:37:43.973Z,11.17
2022-07-28T08:40:49.948Z,10.07
2022-07-28T08:43:53.952Z,9.82
2022-07-28T08:46:58.567Z,11.35
2022-07-28T08:50:01.651Z,14.50
2022-07-28T08:53:06.450Z,11.27
2022-07-28T08:56:16.050Z,12.88
2022-07-28T08:59:20.287Z,12.38
2022-07-28T09:02:26.354Z,10.52
2022-07-28T09:05:29.585Z,11.05
2022-07-28T09:08:31.970Z,10.83
2022-07-28T09:11:34.386Z,11.82
2022-07-28T09:14:36.822Z,12.27
2022-07-28T09:17:40.470Z,9.50
2022-07-28T09:20:44.075Z,13.32
2022-07-28T09:23:49.670Z,10.70
2022-07-28T09:27:18.550Z,11.43
2022-07-28T09:30:32.384Z,12.20
2022-07-28T09:33:43.167Z,11.00
2022-07-28T09:36:46.615Z,12.25
2022-07-28T09:39:52.854Z,13.30
2022-07-28T09:42:58.129Z,13.15
2022-07-28T09:46:08.158Z,12.50
2022-07-28T09:49:11.119Z,11.30
2022-07-28T09:52:13.936Z,12.00
2022-07-28T09:55:18.495Z,12.87
2022-07-28T09:58:20.916Z,10.85
2022-07-28T10:01:24.910Z,11.25
2022-07-28T10:04:37.870Z,14.02
2022-07-28T10:07:50.122Z,9.73
2022-07-28T10:11:00.097Z,9.53
2022-07-28T10:14:05.161Z,11.35
2022-07-28T10:17:08.082Z,7.45
2022-07-28T10:20:11.015Z,13.48
2022-07-28T10:23:15.400Z,9.82
2022-07-28T10:26:22.361Z,8.93
2022-07-28T10:29:24.915Z,10.52
2022-07-28T10:32:29.806Z,8.65
2022-07-28T10:35:32.745Z,10.18
2022-07-28T10:39:02.272Z,9.77
2022-07-28T10:42:08.201Z,9.07
2022-07-28T10:45:13.886Z,11.80
2022-07-28T10:48:17.587Z,9.00
2022-07-28T10:51:21.796Z,9.48
2022-07-28T10:54:28.103Z,8.05
2022-07-28T10:57:31.580Z,9.93
2022-07-28T11:00:55.352Z,13.50
2022-07-28T11:03:59.521Z,8.75
2022-07-28T11:07:12.732Z,7.70
2022-07-28T11:10:17.068Z,11.63
2022-07-28T11:13:28.869Z,11.20
2022-07-28T11:16:36.819Z,10.38
2022-07-28T11:23:59.512Z,11.02
2022-07-28T11:27:04.134Z,7.90
2022-07-28T11:30:08.439Z,8.97
2022-07-28T11:33:11.040Z,12.88
2022-07-28T11:36:14.783Z,8.98
2022-07-28T11:39:27.270Z,10.32
2022-07-28T11:42:36.146Z,9.77
2022-07-28T11:45:40.588Z,9.20
2022-07-28T11:48:45.846Z,7.40
2022-07-28T11:52:11.241Z,8.75
2022-07-28T11:55:18.505Z,10.70
2022-07-28T11:58:27.655Z,9.63
2022-07-28T12:01:31.891Z,7.90
2022-07-28T12:29:36.039Z,10.23
2022-07-28T12:32:38.935Z,10.60
2022-07-28T12:35:41.709Z,12.67
2022-07-28T12:38:45.835Z,11.07
2022-07-28T12:41:49.664Z,8.60
2022-07-28T12:44:54.202Z,8.93
2022-07-28T12:48:06.360Z,8.48
2022-07-28T12:51:08.787Z,9.13
2022-07-28T12:54:14.833Z,9.68
2022-07-28T12:57:17.485Z,7.80
2022-07-28T13:00:26.933Z,7.80
2022-07-28T13:03:29.684Z,8.40
2022-07-28T13:06:32.053Z,6.53
2022-07-28T13:09:35.399Z,6.68
2022-07-28T13:12:37.952Z,9.07
2022-07-28T13:15:40.476Z,9.30
2022-07-28T13:18:48.885Z,8.68
2022-07-28T13:22:01.583Z,8.40
2022-07-28T13:25:07.098Z,8.52
2022-07-28T13:28:26.977Z,9.40
2022-07-28T13:31:29.519Z,9.68
2022-07-28T13:34:32.130Z,7.72
2022-07-28T13:37:35.616Z,7.30
2022-07-28T13:40:38.082Z,8.57
2022-07-28T13:43:40.480Z,7.43
2022-07-28T13:46:47.068Z,11.70
2022-07-28T13:49:49.920Z,7.10
2022-07-28T13:52:53.691Z,8.57
2022-07-28T13:55:56.440Z,6.70
2022-07-28T13:59:11.304Z,7.38
2022-07-28T14:02:16.327Z,6.95
2022-07-28T14:05:19.200Z,8.73
2022-07-28T14:08:25.408Z,8.07
2022-07-28T14:11:28.410Z,9.93
2022-07-28T14:14:30.915Z,10.05
2022-07-28T14:17:43.989Z,7.47
2022-07-28T14:20:48.127Z,8.27
2022-07-28T14:23:50.863Z,8.43
2022-07-28T14:26:53.565Z,10.27
2022-07-28T14:29:56.360Z,12.63
2022-07-28T14:32:58.883Z,7.40
2022-07-28T14:36:01.232Z,8.15
2022-07-28T14:39:09.157Z,8.63
2022-07-28T14:42:14.843Z,10.73
2022-07-28T14:45:17.401Z,9.25
2022-07-28T14:48:19.779Z,11.40
2022-07-28T14:51:22.184Z,9.50
2022-07-28T14:54:24.944Z,8.10
2022-07-28T14:57:48.825Z,11.82
2022-07-28T15:00:49.716Z,11.45
2022-07-28T15:03:52.123Z,10.38
2022-07-28T15:06:54.567Z,9.88
2022-07-28T15:09:57.386Z,8.80
2022-07-28T15:12:59.749Z,12.70
2022-07-28T15:16:02.199Z,6.60
2022-07-28T15:19:06.572Z,9.27
2022-07-28T15:22:09.171Z,7.82
2022-07-28T15:25:11.668Z,8.83
2022-07-28T15:28:17.598Z,12.15
2022-07-28T15:31:24.193Z,8.02
2022-07-28T15:34:28.397Z,12.50
2022-07-28T15:37:30.921Z,12.02
2022-07-28T15:40:33.382Z,9.20
2022-07-28T15:43:35.832Z,8.52
2022-07-28T15:46:39.853Z,7.60
2022-07-28T15:49:42.936Z,10.63
2022-07-28T15:52:45.377Z,10.90
2022-07-28T15:55:51.239Z,9.50
2022-07-28T15:58:56.344Z,10.57
2022-07-28T16:01:58.765Z,11.45
2022-07-28T16:05:01.485Z,15.02
2022-07-28T16:08:04.039Z,13.35
2022-07-28T16:11:06.441Z,11.60
2022-07-28T16:14:09.351Z,8.55
2022-07-28T16:17:12.705Z,15.15
2022-07-28T16:20:15.176Z,11.43
2022-07-28T16:23:17.506Z,10.95
2022-07-28T16:26:19.913Z,9.33
2022-07-28T16:29:22.391Z,11.55
2022-07-28T16:32:24.792Z,7.80
2022-07-28T16:35:32.721Z,13.07
2022-07-28T16:38:35.126Z,10.93
2022-07-28T16:41:46.781Z,10.60
2022-07-28T16:44:50.568Z,10.63
2022-07-28T16:47:53.122Z,12.00
2022-07-28T16:50:55.538Z,12.07
2022-07-28T16:53:57.905Z,11.48
2022-07-28T16:57:00.843Z,12.30
2022-07-28T17:00:04.673Z,11.60
2022-07-28T17:03:07.171Z,15.13
2022-07-28T17:06:13.482Z,14.02
2022-07-28T17:09:16.276Z,12.82
2022-07-28T17:12:20.177Z,9.30
2022-07-28T17:15:23.567Z,11.82
2022-07-28T17:18:26.209Z,16.52
2022-07-28T17:21:28.569Z,9.27
2022-07-28T17:24:31.099Z,12.23
2022-07-28T17:27:38.575Z,13.53
2022-07-28T17:30:42.232Z,9.10
2022-07-28T17:33:44.772Z,9.90
2022-07-28T17:36:48.102Z,9.15
2022-07-28T17:39:50.549Z,9.20
2022-07-28T17:42:53.228Z,10.23
2022-07-28T17:45:55.794Z,21.92
2022-07-28T17:48:59.009Z,16.77
2022-07-28T17:52:01.980Z,10.15
2022-07-28T17:55:24.090Z,12.45
2022-07-28T17:58:32.233Z,10.07
2022-07-28T18:01:35.026Z,11.13
2022-07-28T18:04:37.488Z,10.40
2022-07-28T18:07:51.138Z,15.05
2022-07-28T18:10:55.471Z,12.63
2022-07-28T18:14:04.325Z,12.17
2022-07-28T18:17:07.512Z,14.98
2022-07-28T18:20:11.756Z,16.25
2022-07-28T18:23:14.463Z,16.83
2022-07-28T18:26:16.810Z,11.25
2022-07-28T18:29:21.492Z,17.73
2022-07-28T18:32:24.330Z,12.80
2022-07-28T18:35:26.736Z,16.10
2022-07-28T18:38:29.137Z,11.38
2022-07-28T18:41:34.646Z,13.57
2022-07-28T18:44:49.914Z,16.00
2022-07-28T18:47:53.191Z,14.15
2022-07-28T18:50:55.550Z,19.10
2022-07-28T18:53:57.943Z,21.17
2022-07-28T18:57:00.402Z,12.88
2022-07-28T19:00:04.835Z,17.80
2022-07-28T19:03:07.462Z,19.27
2022-07-28T19:06:10.579Z,15.43
2022-07-28T19:09:12.952Z,13.50
2022-07-28T19:12:15.454Z,14.93
2022-07-28T19:15:17.929Z,15.73
2022-07-28T19:18:20.415Z,15.02
2022-07-28T19:21:24.470Z,13.63
2022-07-28T19:24:26.988Z,15.02
2022-07-28T19:27:30.667Z,11.80
2022-07-28T19:30:33.753Z,16.83
2022-07-28T19:33:36.699Z,18.00
2022-07-28T19:36:41.621Z,17.05
2022-07-28T19:39:46.090Z,16.70
2022-07-28T19:42:48.767Z,18.40
2022-07-28T19:45:57.295Z,14.30
2022-07-28T19:48:59.874Z,19.27
2022-07-28T19:52:02.359Z,15.80
2022-07-28T19:55:06.185Z,19.20
2022-07-28T19:58:08.717Z,19.33
2022-07-28T20:01:11.174Z,18.23
2022-07-28T20:04:13.679Z,18.15
2022-07-28T20:07:16.149Z,18.65
2022-07-28T20:10:19.039Z,21.92
2022-07-28T20:13:21.769Z,17.27
2022-07-28T20:16:24.743Z,18.17
2022-07-28T20:19:27.344Z,16.40
2022-07-28T20:22:30.344Z,16.80
2022-07-28T20:25:32.735Z,19.65
2022-07-28T20:28:35.145Z,17.95
2022-07-28T20:31:37.959Z,14.93
2022-07-28T20:34:40.627Z,18.73
2022-07-28T20:37:43.057Z,17.17
2022-07-28T20:40:45.420Z,22.88
2022-07-28T20:44:05.137Z,17.90
2022-07-28T20:47:10.254Z,19.13
2022-07-28T20:50:14.692Z,20.05
2022-07-28T20:53:17.159Z,20.92
2022-07-28T20:56:19.578Z,15.38
2022-07-28T20:59:27.365Z,14.23
2022-07-28T21:02:30.645Z,14.63
2022-07-28T21:05:35.453Z,13.85
2022-07-28T21:08:38.669Z,16.92
2022-07-28T21:11:41.145Z,15.77
2022-07-28T21:14:43.554Z,12.70
2022-07-28T21:17:46.058Z,16.10
2022-07-28T21:20:48.555Z,13.05
2022-07-28T21:23:51.193Z,16.95
2022-07-28T21:26:53.990Z,14.02
2022-07-28T21:32:57.754Z,18.00
2022-07-28T21:36:00.201Z,13.27
2022-07-28T21:39:04.434Z,13.45
2022-07-28T21:42:08.542Z,13.38
2022-07-28T21:45:11.683Z,14.43
2022-07-28T21:48:14.571Z,12.83
2022-07-28T21:51:21.458Z,16.38
2022-07-28T21:54:24.221Z,14.77
2022-07-28T21:57:26.642Z,11.55
2022-07-28T22:00:29.819Z,16.77
2022-07-28T22:03:32.272Z,14.87
2022-07-28T22:06:34.695Z,19.80
2022-07-28T22:09:38.113Z,15.70
2022-07-28T22:12:41.085Z,14.75
2022-07-28T22:15:43.469Z,13.40
2022-07-28T22:18:45.925Z,16.07
2022-07-28T22:21:48.317Z,11.38
2022-07-28T22:24:50.714Z,13.45
2022-07-28T22:27:53.504Z,11.77
2022-07-28T22:30:55.906Z,16.90
2022-07-28T22:33:58.303Z,11.70
2022-07-28T22:37:11.205Z,14.23
2022-07-28T22:40:18.349Z,15.38
2022-07-28T22:43:20.714Z,16.73
2022-07-28T22:46:23.147Z,11.38
2022-07-28T22:49:25.615Z,11.60
2022-07-28T22:52:29.607Z,14.65
2022-07-28T22:55:32.165Z,14.68
2022-07-28T22:58:34.711Z,13.43
2022-07-28T23:01:37.468Z,15.40
2022-07-28T23:04:40.067Z,14.00
2022-07-28T23:07:53.473Z,12.43
2022-07-28T23:11:00.163Z,13.82
2022-07-28T23:14:02.500Z,12.48
2022-07-28T23:17:05.616Z,10.75
2022-07-28T23:20:08.737Z,10.63
2022-07-28T23:23:12.414Z,9.27
2022-07-28T23:26:14.818Z,11.98
2022-07-28T23:29:17.224Z,14.55
2022-07-28T23:32:19.599Z,13.02
2022-07-28T23:35:22.050Z,12.40
2022-07-28T23:38:25.148Z,11.50
2022-07-28T23:41:28.161Z,13.93
2022-07-28T23:44:30.524Z,12.48
2022-07-28T23:47:34.364Z,17.95
2022-07-28T23:50:36.860Z,12.67
2022-07-28T23:53:41.106Z,11.35
2022-07-28T23:56:43.775Z,8.85
2022-07-28T23:59:46.227Z,10.15
